Accueil
METAR-TAF:

METAR-TAF

Aéroports :

Aéroport international Galileo-Galilei de Pise

Pise, Italie

latitude: 43-41N, longitude: 010-23E, altitude: 2 m

Observation

Le bulletin a été fait il y a 17 minutes, à 04:15 UTC
Vent 3 kt de sud/sud-est
Température 12°C
Humidité 88%
Pression 1022 hPa
Visibilité 10 km ou plus
Nuages fragmentés à une hauteur de 7000 ft

METAR: LIRP 270415Z 16003KT 9999 BKN070 12/10 Q1022 NOSIG

Heure: 06:32 (04:32 UTC)

Prévision

Le bulletin a été fait il y a 5 heures et 32 minutes, à 23:00 UTC
Prévision valable du 27 à 00 UTC au 27 à 24 UTC
Vent 5 kt de nord-ouest
Visibilité 10 km ou plus
pas de nuages en-dessous de 1500 mètres et pas de cumulonimbus.
Temporairement
du 27 à 00 UTC au 27 à 06 UTC
Visibilité 10 km ou plus
Nuages épars à une hauteur de 6000 ft

TAF: LIRP 262300Z 2700/2724 32005KT CAVOK TEMPO 2700/2706 9999 SCT060

Observations et prévisions météorologiques de plus de 4000 aéroports (messages METAR et TAF).

Les stations disponibles sont représentées par des disques jaunes et rouges sur la carte.

Passer la souris dessus pour voir le nom de la station.

Cliquer dessus pour voir les observations et prévisions météorologiques.

Pour changer de carte: cliquez sur les boutons verts avec une croix noire pour zoomer, sur le bouton vert avec un tiret pour effectuer un zoom arrière, ou sur les flèches vertes pour les cartes adjacentes.


METAR-TAF: